Time;durP1;ratioP1;P1;durP2;ratioP2;P2;SDS_P1;SDS_P2;PMS_P1;PMS_P2;Temp;Humidity;BMP_temperature;BMP_pressure;BME280_temperature;BME280_humidity;BME280_pressure;Samples;Min_cycle;Max_cycle;Signal;HPM_P1;HPM_P2
2022/03/06 00:01:54;;;;;;;1.83;1.33;;;;;;;22.56;39.95;102198.53;5034526;28;20406;-62
2022/03/06 00:04:20;;;;;;;2.30;0.90;;;;;;;22.51;40.54;102199.88;5034048;28;20033;-62
2022/03/06 00:06:45;;;;;;;3.63;1.20;;;;;;;22.55;39.75;102205.03;5034192;28;20084;-63
2022/03/06 00:09:11;;;;;;;1.77;0.93;;;;;;;22.46;40.53;102202.25;5033019;28;20029;-61
2022/03/06 00:11:36;;;;;;;1.83;1.05;;;;;;;22.91;40.25;102195.53;5034193;28;20021;-63
2022/03/06 00:14:01;;;;;;;2.78;1.30;;;;;;;23.23;42.01;102199.34;5034431;28;20416;-63
2022/03/06 00:16:26;;;;;;;1.85;1.10;;;;;;;23.31;43.11;102196.59;5033605;28;20072;-62
2022/03/06 00:18:52;;;;;;;2.17;0.85;;;;;;;23.40;44.90;102201.91;5034060;28;20028;-64
2022/03/06 00:21:17;;;;;;;3.13;1.17;;;;;;;23.48;45.68;102198.28;5033679;28;20065;-62
2022/03/06 00:23:42;;;;;;;2.50;0.80;;;;;;;23.51;47.10;102197.94;5034255;28;20032;-62
2022/03/06 00:26:07;;;;;;;2.25;0.80;;;;;;;23.51;47.78;102192.44;5034213;28;20032;-63
2022/03/06 00:28:33;;;;;;;2.50;0.50;;;;;;;23.58;48.85;102198.16;5033700;28;20047;-62
2022/03/06 00:30:59;;;;;;;1.58;0.75;;;;;;;23.64;49.07;102198.31;5033865;28;20431;-63
2022/03/06 00:33:24;;;;;;;0.95;0.47;;;;;;;23.69;49.93;102195.06;5033550;28;20436;-62
2022/03/06 00:35:49;;;;;;;2.70;0.65;;;;;;;23.71;50.37;102187.50;5033706;28;20536;-63
2022/03/06 00:38:14;;;;;;;3.03;0.60;;;;;;;23.74;51.05;102197.28;5033443;28;20037;-63
2022/03/06 00:40:42;;;;;;;2.05;0.50;;;;;;;23.72;50.31;102194.72;5033526;28;20063;-62
2022/03/06 00:43:07;;;;;;;1.25;0.80;;;;;;;23.76;50.72;102184.22;5033485;28;20017;-63
2022/03/06 00:45:32;;;;;;;2.30;1.10;;;;;;;23.79;50.73;102178.38;5033017;28;20036;-63
2022/03/06 00:47:58;;;;;;;1.58;0.60;;;;;;;23.79;50.81;102186.59;5032234;28;20478;-64
2022/03/06 00:50:23;;;;;;;1.00;0.50;;;;;;;23.84;50.11;102181.44;5033193;28;20029;-63
2022/03/06 00:52:49;;;;;;;1.45;0.65;;;;;;;23.85;49.93;102177.66;5033442;28;20025;-63
2022/03/06 00:55:14;;;;;;;3.30;1.45;;;;;;;23.89;49.54;102170.81;5033891;28;20025;-63
2022/03/06 00:57:39;;;;;;;1.88;0.40;;;;;;;23.90;49.45;102178.00;5033305;28;20473;-63
2022/03/06 01:00:07;;;;;;;1.48;0.65;;;;;;;23.96;49.26;102180.03;5031908;28;20112;-63
2022/03/06 01:02:32;;;;;;;0.70;0.40;;;;;;;23.98;48.86;102167.84;5033078;28;20031;-64
2022/03/06 01:04:58;;;;;;;0.95;0.43;;;;;;;24.00;47.95;102165.75;5033386;28;20472;-63
2022/03/06 01:07:23;;;;;;;2.05;0.70;;;;;;;24.04;48.00;102171.78;5033152;28;20664;-63
2022/03/06 01:09:48;;;;;;;1.15;0.47;;;;;;;24.05;47.16;102168.00;5033164;28;20034;-63
2022/03/06 01:12:13;;;;;;;0.68;0.40;;;;;;;24.08;46.91;102153.06;5032865;28;20200;-63
2022/03/06 01:14:39;;;;;;;1.20;0.32;;;;;;;24.06;46.67;102155.97;5033079;28;20037;-64
2022/03/06 01:17:04;;;;;;;0.85;0.30;;;;;;;24.08;46.83;102156.66;5032795;28;20048;-63
2022/03/06 01:19:30;;;;;;;0.50;0.35;;;;;;;24.10;46.24;102157.31;5032569;28;20041;-63
2022/03/06 01:21:55;;;;;;;1.30;0.80;;;;;;;24.15;46.24;102152.16;5032662;28;20464;-63
2022/03/06 01:24:20;;;;;;;1.13;0.35;;;;;;;24.18;46.21;102151.78;5032652;28;20080;-63
2022/03/06 01:26:45;;;;;;;0.30;0.22;;;;;;;24.17;45.63;102154.72;5032866;28;20056;-63
2022/03/06 01:29:11;;;;;;;0.43;0.28;;;;;;;24.18;45.90;102157.28;5032678;28;20021;-63
2022/03/06 01:31:37;;;;;;;1.05;0.40;;;;;;;24.18;45.38;102167.41;5032768;28;20021;-64
2022/03/06 01:34:03;;;;;;;1.35;0.60;;;;;;;24.22;44.81;102164.16;5032724;28;20071;-64
2022/03/06 01:36:30;;;;;;;1.52;0.40;;;;;;;24.23;44.25;102162.25;5032595;28;20037;-63
2022/03/06 01:38:56;;;;;;;0.77;0.30;;;;;;;24.22;44.56;102164.16;5032970;28;20095;-63
2022/03/06 01:41:21;;;;;;;1.13;0.40;;;;;;;24.25;45.06;102158.28;5032399;28;20029;-62
2022/03/06 01:43:46;;;;;;;0.60;0.22;;;;;;;24.23;44.16;102160.38;5032907;28;20036;-63
2022/03/06 01:46:13;;;;;;;0.60;0.40;;;;;;;24.25;44.21;102152.78;5032270;28;20025;-64
2022/03/06 01:48:39;;;;;;;1.20;0.52;;;;;;;24.27;44.49;102156.22;5032571;28;20056;-62
2022/03/06 01:51:04;;;;;;;3.03;0.50;;;;;;;24.26;44.49;102151.75;5033067;28;20457;-63
2022/03/06 01:53:29;;;;;;;1.70;0.30;;;;;;;24.27;43.88;102150.72;5032353;28;20029;-63
2022/03/06 01:55:54;;;;;;;1.30;0.38;;;;;;;24.29;44.19;102151.44;5032544;28;20022;-64
2022/03/06 01:58:20;;;;;;;0.73;0.40;;;;;;;24.33;43.85;102159.31;5032288;28;20037;-63
2022/03/06 02:00:49;;;;;;;0.50;0.25;;;;;;;24.31;43.75;102156.75;5032311;28;20461;-63
2022/03/06 02:03:15;;;;;;;0.30;0.20;;;;;;;24.31;43.62;102156.75;5032346;28;20030;-63
2022/03/06 02:05:40;;;;;;;0.77;0.30;;;;;;;24.28;43.88;102152.44;5032221;28;20052;-62
2022/03/06 02:08:06;;;;;;;0.50;0.20;;;;;;;24.30;43.77;102161.38;5031088;28;20539;-63
2022/03/06 02:10:32;;;;;;;0.55;0.32;;;;;;;24.34;43.25;102163.75;5032173;28;20519;-63
2022/03/06 02:12:58;;;;;;;2.22;0.63;;;;;;;24.36;43.28;102167.22;5032397;28;20045;-64
2022/03/06 02:15:24;;;;;;;1.40;0.20;;;;;;;24.35;43.25;102168.22;5031853;28;20033;-63
2022/03/06 02:17:49;;;;;;;1.75;0.40;;;;;;;24.35;43.97;102162.72;5032408;28;20065;-63
2022/03/06 02:20:17;;;;;;;1.38;0.40;;;;;;;24.36;43.82;102153.47;5032029;28;20087;-62
2022/03/06 02:22:54;;;;;;;0.40;0.30;;;;;;;24.37;43.74;102160.69;5032268;28;20032;-63
2022/03/06 02:25:32;;;;;;;1.85;0.40;;;;;;;24.39;43.19;102153.13;5032033;28;20476;-63
2022/03/06 02:28:00;;;;;;;1.55;0.68;;;;;;;24.38;43.14;102159.66;5032290;28;20044;-63
2022/03/06 02:30:29;;;;;;;0.88;0.30;;;;;;;24.41;43.12;102162.88;5032183;28;20031;-63
2022/03/06 02:32:57;;;;;;;0.80;0.20;;;;;;;24.41;42.69;102159.28;5034253;28;20084;-64
2022/03/06 02:35:23;;;;;;;0.85;0.32;;;;;;;24.43;43.59;102159.97;5035146;28;20054;-63
2022/03/06 02:37:49;;;;;;;0.45;0.20;;;;;;;24.39;43.43;102153.13;5036335;28;20033;-64
2022/03/06 02:40:16;;;;;;;0.40;0.20;;;;;;;24.39;42.55;102153.97;5035629;28;20112;-63
2022/03/06 02:42:44;;;;;;;0.93;0.20;;;;;;;24.41;43.20;102162.03;5035904;28;20025;-64
2022/03/06 02:45:12;;;;;;;2.10;0.60;;;;;;;24.35;42.86;102162.72;5035480;28;20108;-63
2022/03/06 02:47:38;;;;;;;0.90;0.22;;;;;;;24.41;43.45;102156.53;5035177;28;20279;-64
2022/03/06 02:50:06;;;;;;;0.45;0.30;;;;;;;24.40;43.55;102163.06;5035779;28;20416;-62
2022/03/06 02:52:32;;;;;;;0.52;0.20;;;;;;;24.43;42.48;102165.44;5035697;28;20347;-64
2022/03/06 02:54:57;;;;;;;1.15;0.20;;;;;;;24.39;43.43;102169.59;5036002;28;20025;-63
2022/03/06 02:57:22;;;;;;;0.43;0.20;;;;;;;24.35;43.12;102168.22;5035321;28;20028;-64
2022/03/06 02:59:48;;;;;;;0.65;0.28;;;;;;;24.40;43.23;102171.31;5035509;28;20026;-63
2022/03/06 03:02:13;;;;;;;1.25;0.28;;;;;;;24.39;42.95;102169.59;5035348;28;20475;-64
2022/03/06 03:04:39;;;;;;;0.50;0.22;;;;;;;24.43;43.16;102170.94;5035365;28;20033;-63
2022/03/06 03:07:05;;;;;;;0.90;0.28;;;;;;;24.47;42.83;102166.78;5035079;28;20045;-64
2022/03/06 03:09:31;;;;;;;0.35;0.20;;;;;;;24.37;42.71;102163.44;5035152;28;20025;-62
2022/03/06 03:11:56;;;;;;;0.43;0.15;;;;;;;24.36;43.50;102162.59;5035552;28;20025;-62
2022/03/06 03:14:22;;;;;;;1.60;0.63;;;;;;;24.38;42.75;102157.75;5034821;28;20029;-63
2022/03/06 03:16:47;;;;;;;0.77;0.40;;;;;;;24.37;42.97;102163.44;5035342;28;20030;-63
2022/03/06 03:19:13;;;;;;;0.73;0.30;;;;;;;24.40;43.32;102177.66;5034988;28;20033;-64
2022/03/06 03:21:38;;;;;;;1.08;0.40;;;;;;;24.39;43.06;102172.34;5035095;28;20063;-64
2022/03/06 03:24:04;;;;;;;2.60;0.20;;;;;;;24.37;42.73;102163.44;5035133;28;20392;-63
2022/03/06 03:26:30;;;;;;;1.63;0.40;;;;;;;24.41;42.75;102165.63;5035134;28;20069;-63
2022/03/06 03:28:55;;;;;;;1.25;0.22;;;;;;;24.38;43.02;102171.50;5035114;28;20412;-63
2022/03/06 03:31:20;;;;;;;0.60;0.20;;;;;;;24.46;42.31;102159.59;5034718;28;20025;-63
2022/03/06 03:33:46;;;;;;;1.35;0.30;;;;;;;24.47;42.37;102161.28;5034948;28;20104;-64
2022/03/06 03:36:12;;;;;;;0.63;0.22;;;;;;;24.44;42.97;102159.78;5034515;28;20064;-63
2022/03/06 03:38:40;;;;;;;0.52;0.40;;;;;;;24.39;42.75;102158.59;5034867;28;20027;-63
2022/03/06 03:41:07;;;;;;;1.27;0.30;;;;;;;24.43;42.58;102159.97;5034979;28;20108;-64
2022/03/06 03:43:33;;;;;;;1.33;0.30;;;;;;;24.46;42.76;102165.09;5034414;28;20025;-63
2022/03/06 03:45:58;;;;;;;0.50;0.25;;;;;;;24.46;42.51;102156.84;5034742;28;20075;-63
2022/03/06 03:48:28;;;;;;;0.28;0.13;;;;;;;24.46;42.46;102159.59;5034403;28;20481;-63
2022/03/06 03:50:54;;;;;;;0.68;0.30;;;;;;;24.48;42.66;102163.00;5034604;28;20485;-63
2022/03/06 03:53:21;;;;;;;0.73;0.22;;;;;;;24.50;42.45;102166.44;5034648;28;20053;-66
2022/03/06 03:55:46;;;;;;;0.65;0.20;;;;;;;24.41;41.97;102162.03;5034506;28;20025;-63
2022/03/06 03:58:12;;;;;;;0.98;0.20;;;;;;;24.43;42.66;102158.06;5033019;28;20068;-63
2022/03/06 04:00:37;;;;;;;0.40;0.20;;;;;;;24.42;42.46;102163.75;5034305;28;20030;-64
2022/03/06 04:03:02;;;;;;;0.82;0.30;;;;;;;24.49;42.80;102175.72;5034644;28;20109;-63
2022/03/06 04:05:28;;;;;;;0.98;0.20;;;;;;;24.44;42.63;102178.16;5033580;28;20037;-64
2022/03/06 04:07:54;;;;;;;1.10;0.20;;;;;;;24.49;41.63;102181.22;5033863;28;20025;-64
2022/03/06 04:10:19;;;;;;;1.90;0.28;;;;;;;24.50;42.56;102174.69;5034044;28;20021;-63
2022/03/06 04:12:44;;;;;;;0.22;0.20;;;;;;;24.45;42.20;102174.38;5034227;28;20026;-64
2022/03/06 04:15:09;;;;;;;1.90;0.20;;;;;;;24.45;42.45;102171.63;5034047;28;20026;-63
2022/03/06 04:17:35;;;;;;;2.85;0.32;;;;;;;24.46;42.49;102173.34;5034089;28;20660;-64
2022/03/06 04:20:00;;;;;;;0.90;0.40;;;;;;;24.50;42.26;102177.44;5033993;28;20496;-64
2022/03/06 04:22:25;;;;;;;0.25;0.10;;;;;;;24.44;42.24;102180.91;5034079;28;20017;-64
2022/03/06 04:24:50;;;;;;;0.55;0.40;;;;;;;24.48;42.25;102182.25;5033954;28;20025;-63
2022/03/06 04:27:16;;;;;;;0.40;0.20;;;;;;;24.46;41.54;102178.84;5033999;28;20112;-63
2022/03/06 04:29:41;;;;;;;0.82;0.13;;;;;;;24.49;41.75;102175.72;5034272;28;20063;-63
2022/03/06 04:32:07;;;;;;;0.85;0.40;;;;;;;24.51;42.17;102168.13;5033775;28;20047;-63
2022/03/06 04:34:32;;;;;;;1.90;0.20;;;;;;;24.50;42.11;102171.94;5033389;28;20033;-63
2022/03/06 04:36:57;;;;;;;1.05;0.20;;;;;;;24.50;42.32;102178.28;5033733;28;20676;-64
2022/03/06 04:39:22;;;;;;;1.17;0.32;;;;;;;24.55;41.79;102170.38;5033362;28;20029;-64
2022/03/06 04:41:48;;;;;;;0.57;0.10;;;;;;;24.53;41.68;102182.59;5033660;28;20449;-64
2022/03/06 04:44:13;;;;;;;0.25;0.10;;;;;;;24.52;41.75;102170.75;5033736;28;20026;-63
2022/03/06 04:46:39;;;;;;;0.40;0.20;;;;;;;24.50;42.19;102174.69;5033866;28;20053;-64
2022/03/06 04:49:04;;;;;;;3.80;0.22;;;;;;;24.54;41.54;102171.41;5033454;28;20464;-63
2022/03/06 04:51:30;;;;;;;0.30;0.20;;;;;;;24.45;42.36;102174.38;5033616;28;20091;-63
2022/03/06 04:53:55;;;;;;;0.65;0.30;;;;;;;24.54;42.17;102174.16;5033801;28;20062;-64
2022/03/06 04:56:21;;;;;;;1.02;0.40;;;;;;;24.49;42.33;102176.56;5032579;28;20040;-63
2022/03/06 04:58:46;;;;;;;0.63;0.20;;;;;;;24.52;41.90;102172.59;5033397;28;20029;-64
2022/03/06 05:01:11;;;;;;;0.80;0.40;;;;;;;24.49;41.81;102184.81;5033041;28;20464;-64
2022/03/06 05:03:36;;;;;;;0.10;0.05;;;;;;;24.76;41.12;102177.09;5033166;28;20075;-63
2022/03/06 05:06:02;;;;;;;2.85;0.20;;;;;;;24.82;40.78;102176.38;5032784;28;20048;-63
2022/03/06 05:08:27;;;;;;;0.60;0.10;;;;;;;24.93;40.53;102177.84;5033234;28;20037;-63
2022/03/06 05:10:54;;;;;;;1.30;0.20;;;;;;;25.02;40.32;102182.28;5033139;28;20044;-64
2022/03/06 05:13:21;;;;;;;1.60;0.40;;;;;;;25.05;40.69;102181.94;5033077;28;20156;-62
2022/03/06 05:15:46;;;;;;;0.45;0.28;;;;;;;25.05;40.59;102171.78;5033057;28;20025;-64
2022/03/06 05:18:11;;;;;;;1.08;0.20;;;;;;;25.06;40.32;102178.13;5032876;28;20124;-63
2022/03/06 05:20:37;;;;;;;0.90;0.20;;;;;;;25.13;40.28;102179.09;5032833;28;20026;-64
2022/03/06 05:23:03;;;;;;;0.32;0.10;;;;;;;25.13;40.03;102179.09;5032951;28;20044;-63
2022/03/06 05:25:28;;;;;;;0.60;0.20;;;;;;;25.17;39.52;102186.78;5032717;28;20481;-64
2022/03/06 05:27:54;;;;;;;0.70;0.32;;;;;;;25.19;39.90;102183.84;5032862;28;20044;-64
2022/03/06 05:30:19;;;;;;;0.85;0.17;;;;;;;25.18;39.82;102182.13;5032683;28;20393;-64
2022/03/06 05:32:44;;;;;;;0.88;0.10;;;;;;;25.22;39.07;102189.00;5032821;28;20033;-64
2022/03/06 05:35:10;;;;;;;0.35;0.15;;;;;;;25.25;39.60;102185.03;5032384;28;20204;-62
2022/03/06 05:37:36;;;;;;;0.52;0.20;;;;;;;25.27;39.37;102185.69;5032684;28;20036;-64
2022/03/06 05:40:03;;;;;;;0.88;0.20;;;;;;;25.22;39.44;102182.66;5032839;28;20049;-64
2022/03/06 05:42:29;;;;;;;0.60;0.17;;;;;;;25.28;39.03;102192.91;5032500;28;20484;-63
2022/03/06 05:44:54;;;;;;;0.60;0.10;;;;;;;25.26;39.88;102178.47;5032646;28;20021;-66
2022/03/06 05:47:19;;;;;;;0.30;0.10;;;;;;;25.29;39.15;102181.72;5032585;28;20033;-63
2022/03/06 05:49:44;;;;;;;0.20;0.20;;;;;;;25.31;38.68;102176.88;5032585;28;20511;-64
2022/03/06 05:52:10;;;;;;;0.63;0.20;;;;;;;25.34;38.58;102170.13;5031188;28;20037;-63
2022/03/06 05:54:35;;;;;;;1.45;0.38;;;;;;;25.31;39.03;102176.88;5032448;28;20060;-64
2022/03/06 05:57:01;;;;;;;0.55;0.20;;;;;;;25.22;38.18;102164.25;5032631;28;20032;-64
2022/03/06 05:59:26;;;;;;;0.43;0.10;;;;;;;25.27;39.17;102170.03;5032178;28;20047;-64
2022/03/06 06:01:51;;;;;;;1.17;0.10;;;;;;;25.34;38.80;102162.72;5032484;28;20045;-64
2022/03/06 06:04:18;;;;;;;1.10;0.40;;;;;;;25.34;38.92;102165.47;5032086;28;20057;-64
2022/03/06 06:06:43;;;;;;;0.22;0.20;;;;;;;25.26;37.95;102173.84;5032484;28;20041;-64
2022/03/06 06:09:08;;;;;;;0.40;0.13;;;;;;;25.32;38.94;102167.56;5036715;28;20029;-63
2022/03/06 06:11:34;;;;;;;0.35;0.20;;;;;;;25.28;39.15;102181.91;5036317;28;20553;-63
2022/03/06 06:13:59;;;;;;;0.68;0.10;;;;;;;25.35;38.10;102161.69;5036503;28;20032;-64
2022/03/06 06:16:25;;;;;;;0.32;0.13;;;;;;;25.31;38.87;102165.88;5036104;28;20021;-64
2022/03/06 06:18:50;;;;;;;0.38;0.20;;;;;;;25.37;38.01;102170.66;5036422;28;20510;-64
2022/03/06 06:21:17;;;;;;;0.20;0.08;;;;;;;25.33;38.40;102163.78;5035957;28;20064;-64
2022/03/06 06:23:42;;;;;;;0.50;0.10;;;;;;;25.37;38.90;102154.13;5036307;28;20021;-63
2022/03/06 06:26:08;;;;;;;0.17;0.10;;;;;;;25.35;38.58;102156.19;5036173;28;20032;-63
2022/03/06 06:28:33;;;;;;;0.82;0.10;;;;;;;25.38;39.01;102166.84;5036104;28;20037;-64
2022/03/06 06:30:59;;;;;;;0.90;0.10;;;;;;;25.32;38.12;102158.47;5036519;28;20026;-63
2022/03/06 06:33:24;;;;;;;0.28;0.10;;;;;;;25.36;38.21;102160.69;5035830;28;20116;-64
2022/03/06 06:35:49;;;;;;;0.28;0.00;;;;;;;25.33;37.72;102157.41;5035759;28;20037;-64
2022/03/06 06:38:15;;;;;;;0.28;0.20;;;;;;;25.40;37.90;102156.50;5034426;28;20037;-63
2022/03/06 06:40:40;;;;;;;0.20;0.20;;;;;;;25.35;37.53;102155.31;5035890;28;20026;-63
2022/03/06 06:43:05;;;;;;;0.65;0.40;;;;;;;25.38;38.33;102163.25;5035855;28;20460;-63
2022/03/06 06:45:30;;;;;;;1.27;0.20;;;;;;;25.29;38.44;102165.19;5035769;28;20108;-64
2022/03/06 06:47:56;;;;;;;0.10;0.10;;;;;;;25.38;38.56;102158.59;5035941;28;20376;-64
2022/03/06 06:50:22;;;;;;;0.30;0.15;;;;;;;25.41;38.02;102165.63;5035518;28;20379;-63
2022/03/06 06:52:47;;;;;;;0.68;0.10;;;;;;;25.40;37.96;102170.25;5035759;28;20060;-63
2022/03/06 06:55:12;;;;;;;0.30;0.08;;;;;;;25.42;37.58;102175.59;5035519;28;20021;-64
2022/03/06 06:57:38;;;;;;;0.65;0.25;;;;;;;25.38;38.21;102169.59;5036173;28;20022;-64
2022/03/06 07:00:05;;;;;;;0.70;0.32;;;;;;;25.41;38.01;102165.63;5035492;28;20025;-63
2022/03/06 07:02:31;;;;;;;0.20;0.10;;;;;;;25.41;38.57;102163.72;5035415;28;20128;-64
2022/03/06 07:04:56;;;;;;;0.32;0.20;;;;;;;25.39;38.16;102174.06;5034892;28;20564;-64
2022/03/06 07:07:21;;;;;;;0.43;0.10;;;;;;;25.42;36.99;102173.69;5035219;28;20524;-64
2022/03/06 07:09:47;;;;;;;0.30;0.13;;;;;;;25.40;37.47;102175.78;5035449;28;20064;-63
2022/03/06 07:12:12;;;;;;;0.57;0.30;;;;;;;25.32;37.36;102184.09;5035149;28;20060;-63
2022/03/06 07:14:37;;;;;;;0.70;0.13;;;;;;;25.40;38.80;102181.28;5035308;28;20025;-63
2022/03/06 07:17:03;;;;;;;0.20;0.10;;;;;;;25.35;37.93;102180.97;5035259;28;20034;-64
2022/03/06 07:19:28;;;;;;;1.30;0.28;;;;;;;25.52;38.40;102186.31;5034565;28;20026;-63
2022/03/06 07:21:53;;;;;;;1.17;0.35;;;;;;;25.48;38.22;102181.19;5035145;28;20033;-64
2022/03/06 07:24:19;;;;;;;1.08;0.30;;;;;;;25.44;38.59;102177.09;5034883;28;20108;-63
2022/03/06 07:26:44;;;;;;;0.30;0.20;;;;;;;25.38;37.58;102171.50;5035035;28;20480;-64
2022/03/06 07:29:09;;;;;;;1.42;0.20;;;;;;;25.38;37.85;102169.59;5034917;28;20041;-63
2022/03/06 07:31:35;;;;;;;1.00;0.30;;;;;;;25.40;37.44;102170.25;5034908;28;20025;-64
2022/03/06 07:34:00;;;;;;;0.75;0.30;;;;;;;25.39;36.87;102162.19;5034738;28;20101;-64
2022/03/06 07:36:26;;;;;;;0.85;0.20;;;;;;;25.47;38.48;102165.72;5034664;28;20179;-63
2022/03/06 07:38:51;;;;;;;1.85;0.15;;;;;;;25.43;38.34;102161.63;5034835;28;20048;-64
2022/03/06 07:41:17;;;;;;;1.08;0.20;;;;;;;25.49;37.44;102149.84;5034565;28;20029;-63
2022/03/06 07:43:42;;;;;;;0.25;0.10;;;;;;;25.34;36.66;102137.09;5034800;28;20112;-64
2022/03/06 07:46:08;;;;;;;0.38;0.20;;;;;;;25.33;36.65;102147.25;5034686;28;20465;-63
2022/03/06 07:48:33;;;;;;;0.10;0.10;;;;;;;25.40;37.09;102151.00;5034496;28;20033;-64
2022/03/06 07:50:58;;;;;;;0.65;0.10;;;;;;;25.41;37.75;102152.69;5035141;28;20386;-63
2022/03/06 07:53:23;;;;;;;0.82;0.47;;;;;;;25.48;38.05;102156.41;5034436;28;20072;-63
2022/03/06 07:55:49;;;;;;;0.20;0.10;;;;;;;25.32;37.60;102142.78;5034569;28;20057;-63
2022/03/06 07:58:14;;;;;;;1.25;0.10;;;;;;;25.38;37.48;102139.31;5034339;28;20029;-63
2022/03/06 08:00:39;;;;;;;0.77;0.20;;;;;;;25.40;37.86;102126.22;5034287;28;20353;-64
2022/03/06 08:03:04;;;;;;;0.57;0.20;;;;;;;25.46;38.08;102125.47;5034450;28;20140;-63
2022/03/06 08:05:30;;;;;;;0.20;0.20;;;;;;;25.54;38.63;102137.44;5033712;28;20496;-64
2022/03/06 08:07:55;;;;;;;0.82;0.10;;;;;;;25.40;37.03;102147.38;5034295;28;20025;-63
2022/03/06 08:10:20;;;;;;;0.47;0.10;;;;;;;25.28;37.11;102148.88;5033969;28;20017;-63
2022/03/06 08:12:49;;;;;;;0.70;0.10;;;;;;;25.53;38.23;102152.22;5034053;28;20029;-63
2022/03/06 08:15:16;;;;;;;1.05;0.32;;;;;;;25.28;36.93;102146.97;5034036;28;20044;-64
2022/03/06 08:17:41;;;;;;;0.88;0.15;;;;;;;25.22;36.77;102150.47;5034057;28;20032;-64
2022/03/06 08:20:07;;;;;;;0.10;0.00;;;;;;;25.37;36.41;102156.88;5034242;28;20112;-64
2022/03/06 08:22:33;;;;;;;0.60;0.20;;;;;;;25.38;36.77;102147.56;5034188;28;20057;-64
2022/03/06 08:24:58;;;;;;;0.00;0.00;;;;;;;25.54;37.78;102164.97;5034045;28;20056;-64
2022/03/06 08:27:24;;;;;;;0.90;0.20;;;;;;;25.54;37.48;102162.22;5033647;28;20068;-63
2022/03/06 08:29:50;;;;;;;1.67;0.30;;;;;;;25.49;36.79;102152.59;5032976;28;20072;-63
2022/03/06 08:32:16;;;;;;;0.20;0.00;;;;;;;25.55;36.97;102147.41;5033686;28;20029;-63
2022/03/06 08:34:41;;;;;;;0.63;0.10;;;;;;;25.32;37.01;102145.53;5033534;28;20144;-64
2022/03/06 08:37:07;;;;;;;2.03;0.28;;;;;;;25.55;39.54;102140.00;5033720;28;20021;-64
2022/03/06 08:39:33;;;;;;;1.38;0.17;;;;;;;25.50;37.07;102142.44;5033489;28;20029;-64
2022/03/06 08:41:58;;;;;;;1.17;0.00;;;;;;;25.45;36.94;102134.75;5033810;28;20108;-64
2022/03/06 08:44:24;;;;;;;0.20;0.10;;;;;;;25.47;37.14;102138.19;5033334;28;20017;-63
2022/03/06 08:46:49;;;;;;;0.63;0.10;;;;;;;25.52;37.01;102136.75;5033735;28;20067;-63
2022/03/06 08:49:14;;;;;;;0.10;0.10;;;;;;;25.50;37.41;102137.78;5033402;28;20112;-63
2022/03/06 08:51:40;;;;;;;0.68;0.30;;;;;;;25.47;36.52;102145.56;5033452;28;20032;-63
2022/03/06 08:54:05;;;;;;;0.88;0.20;;;;;;;25.47;36.38;102154.69;5033471;28;20028;-63
2022/03/06 08:56:30;;;;;;;0.50;0.00;;;;;;;25.31;37.04;102149.34;5033248;28;20029;-63
2022/03/06 08:58:56;;;;;;;0.20;0.10;;;;;;;25.47;36.79;102151.94;5033746;28;20457;-64
2022/03/06 09:01:21;;;;;;;0.63;0.10;;;;;;;25.55;37.89;102156.53;5032958;28;20472;-64
2022/03/06 09:03:47;;;;;;;0.20;0.10;;;;;;;25.33;36.61;102158.28;5031767;28;20033;-64
2022/03/06 09:06:12;;;;;;;1.27;0.50;;;;;;;25.36;36.48;102149.66;5032854;28;20064;-63
2022/03/06 09:08:38;;;;;;;0.10;0.10;;;;;;;25.27;36.46;102142.50;5032943;28;20025;-64
2022/03/06 09:11:06;;;;;;;1.17;0.20;;;;;;;25.33;36.39;102139.00;5033162;28;20026;-63
2022/03/06 09:13:33;;;;;;;0.55;0.08;;;;;;;25.36;37.50;102135.00;5033213;28;20036;-63
2022/03/06 09:15:58;;;;;;;0.80;0.00;;;;;;;25.52;36.47;102145.00;5033612;28;20021;-61
2022/03/06 09:18:24;;;;;;;0.95;0.10;;;;;;;25.43;36.22;102142.34;5032770;28;20030;-64
2022/03/06 09:20:50;;;;;;;0.45;0.10;;;;;;;25.36;36.37;102146.91;5032974;28;20051;-63
2022/03/06 09:23:16;;;;;;;0.28;0.10;;;;;;;25.52;36.37;102156.03;5032843;28;20025;-63
2022/03/06 09:25:41;;;;;;;0.60;0.25;;;;;;;25.52;37.22;102150.50;5032912;28;20469;-63
2022/03/06 09:28:07;;;;;;;0.52;0.10;;;;;;;25.55;37.05;102161.19;5032803;28;20021;-63
2022/03/06 09:30:32;;;;;;;0.35;0.13;;;;;;;25.47;36.58;102160.19;5031399;28;20372;-63
2022/03/06 09:32:58;;;;;;;0.45;0.10;;;;;;;25.31;36.15;102151.25;5032888;28;20059;-64
2022/03/06 09:35:23;;;;;;;0.45;0.10;;;;;;;25.39;36.98;102146.53;5032374;28;20234;-63
2022/03/06 09:37:49;;;;;;;0.50;0.13;;;;;;;25.48;37.07;102139.88;5032750;28;20461;-64
2022/03/06 09:40:15;;;;;;;0.28;0.10;;;;;;;25.53;37.41;102142.09;5032462;28;20025;-63
2022/03/06 09:42:40;;;;;;;0.40;0.10;;;;;;;25.60;37.57;102132.03;5032511;28;20033;-63
2022/03/06 09:45:09;;;;;;;0.52;0.10;;;;;;;25.54;37.15;102126.44;5032652;28;20497;-64
2022/03/06 09:47:36;;;;;;;1.95;0.20;;;;;;;25.51;36.32;102133.13;5032518;28;20517;-66
2022/03/06 09:50:02;;;;;;;0.90;0.00;;;;;;;25.10;38.66;102129.94;5032587;28;20376;-64
2022/03/06 09:52:28;;;;;;;0.50;0.10;;;;;;;24.58;40.29;102130.66;5032685;28;20021;-64
2022/03/06 09:54:53;;;;;;;2.92;0.70;;;;;;;24.42;39.11;102130.75;5032602;28;20044;-64
2022/03/06 09:57:20;;;;;;;0.75;0.15;;;;;;;24.23;40.40;102138.38;5032396;28;20017;-64
2022/03/06 09:59:45;;;;;;;0.85;0.10;;;;;;;24.17;38.88;102133.59;5032504;28;20037;-64
2022/03/06 10:02:11;;;;;;;1.50;0.40;;;;;;;24.14;38.67;102133.94;5032289;28;20372;-63
2022/03/06 10:04:37;;;;;;;0.55;0.13;;;;;;;24.06;38.07;102125.75;5032171;28;20044;-63
2022/03/06 10:07:13;;;;;;;0.90;0.30;;;;;;;23.99;38.68;102113.75;5031166;28;20404;-62
2022/03/06 10:09:48;;;;;;;0.70;0.20;;;;;;;23.87;38.25;102115.19;5032355;28;20029;-62
2022/03/06 10:12:27;;;;;;;0.88;0.20;;;;;;;23.89;38.81;102113.97;5032191;28;20063;-62
2022/03/06 10:15:03;;;;;;;0.50;0.10;;;;;;;23.86;38.20;102119.84;5032268;28;20411;-62
2022/03/06 10:17:30;;;;;;;1.05;0.30;;;;;;;23.84;36.52;102115.53;5032191;28;20107;-63
2022/03/06 10:20:01;;;;;;;0.40;0.10;;;;;;;23.78;37.54;102108.00;5032248;28;20033;-63
2022/03/06 10:22:32;;;;;;;0.70;0.28;;;;;;;23.76;37.00;102118.31;5032058;28;20049;-63
2022/03/06 10:25:16;;;;;;;0.65;0.20;;;;;;;23.81;36.79;102113.16;5032354;28;20098;-63
2022/03/06 10:27:58;;;;;;;1.17;0.17;;;;;;;23.77;37.19;102103.56;5032281;28;20032;-63
2022/03/06 10:30:30;;;;;;;0.75;0.00;;;;;;;23.76;37.34;102101.84;5032211;28;20022;-64
2022/03/06 10:32:58;;;;;;;0.80;0.20;;;;;;;23.86;37.02;102102.50;5032234;28;20028;-62
2022/03/06 10:35:43;;;;;;;0.93;0.28;;;;;;;23.92;37.63;102107.28;5031518;28;20029;-64
2022/03/06 10:38:25;;;;;;;0.38;0.10;;;;;;;23.87;37.75;102104.22;5032089;28;20048;-63
2022/03/06 10:40:51;;;;;;;0.75;0.10;;;;;;;23.96;38.32;102103.97;5032053;28;20029;-63
2022/03/06 10:43:33;;;;;;;1.40;0.20;;;;;;;23.97;37.64;102099.34;5031921;28;20400;-63
2022/03/06 10:46:24;;;;;;;0.20;0.20;;;;;;;24.05;37.89;102096.56;5032143;28;20033;-63
2022/03/06 10:48:58;;;;;;;1.65;0.10;;;;;;;24.00;38.00;102096.22;5029685;28;20045;-63
2022/03/06 10:51:24;;;;;;;0.40;0.20;;;;;;;24.05;38.39;102093.81;5031856;28;20049;-63
2022/03/06 10:53:58;;;;;;;0.13;0.00;;;;;;;24.03;38.40;102087.66;5033860;28;20433;-64
2022/03/06 10:56:24;;;;;;;0.63;0.20;;;;;;;24.00;38.17;102079.75;5035344;28;20025;-63
2022/03/06 10:58:50;;;;;;;0.20;0.13;;;;;;;23.92;38.46;102080.66;5035661;28;20061;-64
2022/03/06 11:01:17;;;;;;;0.60;0.13;;;;;;;23.96;38.62;102070.16;5035316;28;20117;-63
2022/03/06 11:03:43;;;;;;;1.27;0.30;;;;;;;23.95;38.46;102079.44;5035294;28;20472;-64
2022/03/06 11:06:10;;;;;;;0.75;0.10;;;;;;;23.95;38.03;102074.81;5035289;28;20104;-62
2022/03/06 11:08:38;;;;;;;0.25;0.10;;;;;;;23.93;38.76;102081.53;5035846;28;20249;-63
2022/03/06 11:11:08;;;;;;;1.42;0.08;;;;;;;23.90;38.76;102066.25;5035921;28;20059;-63
2022/03/06 11:13:33;;;;;;;0.20;0.10;;;;;;;23.88;38.49;102067.47;5035252;28;20025;-63
2022/03/06 11:16:00;;;;;;;1.00;0.30;;;;;;;23.87;38.48;102071.25;5034013;28;20423;-63
2022/03/06 11:18:26;;;;;;;1.75;0.40;;;;;;;23.90;38.07;102073.66;5035110;28;20025;-63
2022/03/06 11:20:54;;;;;;;0.57;0.20;;;;;;;23.86;39.05;102069.56;5035118;28;20021;-63